Time;durP1;ratioP1;P1;durP2;ratioP2;P2;SDS_P1;SDS_P2;PMS_P1;PMS_P2;Temp;Humidity;BMP_temperature;BMP_pressure;BME280_temperature;BME280_humidity;BME280_pressure;Samples;Min_cycle;Max_cycle;Signal;HPM_P1;HPM_P2
2021/12/23 00:01:05;;;;;;;41.92;15.10;;;;;;;7.27;81.51;100853.06;7392719;19;20015;-66
2021/12/23 00:03:33;;;;;;;32.33;12.80;;;;;;;7.24;81.06;100855.94;7388329;19;20035;-67
2021/12/23 00:06:00;;;;;;;35.22;13.82;;;;;;;7.24;80.88;100851.53;7388341;19;20539;-67
2021/12/23 00:08:28;;;;;;;37.53;14.20;;;;;;;7.29;81.09;100857.22;7386468;19;20007;-67
2021/12/23 00:10:55;;;;;;;29.77;11.57;;;;;;;7.34;80.42;100850.75;7386355;19;20010;-66
2021/12/23 00:13:23;;;;;;;29.63;12.45;;;;;;;7.32;80.34;100835.16;7391779;19;20408;-68
2021/12/23 00:16:03;;;;;;;34.05;14.88;;;;;;;7.30;79.71;100840.56;7387916;19;20038;-67
2021/12/23 00:23:41;;;;;;;30.95;12.55;;;;;;;7.28;79.76;100829.38;7387713;19;20015;-66
2021/12/23 00:26:09;;;;;;;33.08;12.98;;;;;;;7.29;79.56;100815.34;7389755;19;20015;-67
2021/12/23 00:28:37;;;;;;;31.63;12.13;;;;;;;7.28;79.73;100810.22;7388178;19;20017;-69
2021/12/23 00:31:07;;;;;;;34.03;13.18;;;;;;;7.30;79.59;100810.94;7388225;19;20039;-67
2021/12/23 00:33:37;;;;;;;36.83;14.43;;;;;;;7.35;80.20;100805.31;7387862;19;20020;-68
2021/12/23 00:36:07;;;;;;;30.30;12.38;;;;;;;7.37;79.94;100805.97;7386746;19;20006;-67
2021/12/23 00:38:39;;;;;;;37.63;13.57;;;;;;;7.36;79.79;100806.97;7384598;19;20083;-68
2021/12/23 00:41:10;;;;;;;37.42;13.02;;;;;;;7.36;79.92;100806.97;7388485;19;20344;-67
2021/12/23 00:43:38;;;;;;;30.83;12.23;;;;;;;7.34;79.71;100803.66;7389019;19;20500;-68
2021/12/23 00:46:06;;;;;;;29.55;11.60;;;;;;;7.35;79.69;100803.53;7387371;19;20010;-68
2021/12/23 00:48:36;;;;;;;33.63;12.73;;;;;;;7.36;79.95;100794.72;7386258;19;20093;-67
2021/12/23 00:51:10;;;;;;;33.55;12.40;;;;;;;7.41;80.89;100802.16;7386076;19;20019;-68
2021/12/23 00:53:45;;;;;;;31.25;13.20;;;;;;;7.44;80.63;100799.28;7394069;19;20363;-67
2021/12/23 00:56:14;;;;;;;32.50;12.38;;;;;;;7.47;81.14;100805.06;7395173;19;20296;-67
2021/12/23 00:58:41;;;;;;;29.30;12.43;;;;;;;7.52;80.68;100794.19;7394165;19;20748;-68
2021/12/23 01:01:09;;;;;;;34.25;14.20;;;;;;;7.53;80.60;100795.84;7395134;19;20011;-69
2021/12/23 01:03:37;;;;;;;30.23;12.75;;;;;;;7.55;80.68;100784.28;7393990;19;20131;-66
2021/12/23 01:06:04;;;;;;;32.47;12.45;;;;;;;7.55;80.75;100775.59;7395579;19;20350;-68
2021/12/23 01:08:32;;;;;;;35.85;13.25;;;;;;;7.53;80.33;100769.66;7392992;19;20027;-69
2021/12/23 01:11:00;;;;;;;29.77;13.60;;;;;;;7.50;80.44;100762.94;7392665;19;20040;-66
2021/12/23 01:13:29;;;;;;;34.92;13.73;;;;;;;7.50;81.07;100744.59;7397785;19;20369;-67
2021/12/23 01:18:37;;;;;;;30.75;13.27;;;;;;;7.53;81.41;100748.72;7392170;19;20007;-68
2021/12/23 01:23:41;;;;;;;30.33;12.13;;;;;;;7.59;81.07;100756.03;7391164;19;20014;-67
2021/12/23 01:26:08;;;;;;;31.55;12.10;;;;;;;7.57;80.46;100764.03;7394293;19;20066;-67
2021/12/23 01:28:36;;;;;;;33.08;13.07;;;;;;;7.58;80.31;100749.97;7395121;19;20022;-67
2021/12/23 01:31:04;;;;;;;30.08;12.20;;;;;;;7.60;79.86;100753.31;7395359;19;20022;-69
2021/12/23 01:33:33;;;;;;;34.83;13.00;;;;;;;7.59;80.14;100738.56;7392817;19;20002;-67
2021/12/23 01:36:01;;;;;;;29.15;12.18;;;;;;;7.57;79.73;100744.88;7393500;19;20014;-68
2021/12/23 01:38:29;;;;;;;31.33;11.48;;;;;;;7.56;79.89;100738.84;7392355;19;20039;-68
2021/12/23 01:40:56;;;;;;;30.45;11.93;;;;;;;7.57;79.82;100737.84;7394968;19;20066;-68
2021/12/23 01:43:24;;;;;;;31.48;10.93;;;;;;;7.57;79.92;100734.41;7389155;19;20370;-68
2021/12/23 01:45:52;;;;;;;31.92;11.57;;;;;;;7.53;79.79;100739.09;7392616;19;20046;-67
2021/12/23 01:48:20;;;;;;;28.80;11.55;;;;;;;7.53;79.74;100731.22;7390816;19;20011;-67
2021/12/23 01:50:48;;;;;;;33.78;12.23;;;;;;;7.54;80.40;100732.91;7390101;19;20014;-66
2021/12/23 01:53:15;;;;;;;31.80;12.00;;;;;;;7.59;80.50;100730.69;7390382;19;20007;-67
2021/12/23 01:55:43;;;;;;;30.98;11.27;;;;;;;7.60;80.08;100732.34;7394436;19;20708;-67
2021/12/23 01:58:13;;;;;;;33.67;12.52;;;;;;;7.59;79.95;100719.38;7397911;19;20025;-67
2021/12/23 02:00:46;;;;;;;30.70;14.15;;;;;;;7.61;81.05;100720.94;7389663;19;20014;-66
2021/12/23 02:03:20;;;;;;;28.25;11.90;;;;;;;7.68;81.32;100708.09;7391556;19;20565;-69
2021/12/23 02:05:52;;;;;;;30.17;12.15;;;;;;;7.63;80.72;100710.28;7394483;19;20011;-67
2021/12/23 02:08:33;;;;;;;29.33;11.43;;;;;;;7.67;80.22;100703.81;7392755;19;20030;-67
2021/12/23 02:11:03;;;;;;;29.40;12.27;;;;;;;7.71;80.24;100710.47;7391009;19;20015;-67
2021/12/23 02:13:33;;;;;;;27.30;11.63;;;;;;;7.73;80.16;100703.28;7392633;19;20048;-67
2021/12/23 02:16:02;;;;;;;33.35;12.70;;;;;;;7.72;80.07;100706.84;7391927;19;20010;-68
2021/12/23 02:18:30;;;;;;;31.67;14.13;;;;;;;7.75;81.33;100706.59;7392219;19;20023;-67
2021/12/23 02:20:58;;;;;;;31.48;11.88;;;;;;;7.76;81.53;100705.63;7392345;19;20045;-67
2021/12/23 02:23:27;;;;;;;28.77;11.55;;;;;;;7.76;81.20;100705.63;7390382;19;20018;-67
2021/12/23 02:25:55;;;;;;;31.30;12.18;;;;;;;7.75;81.65;100711.81;7395237;19;20020;-67
2021/12/23 02:28:23;;;;;;;29.85;11.85;;;;;;;7.77;81.98;100698.59;7393290;19;20017;-67
2021/12/23 02:30:51;;;;;;;36.38;14.40;;;;;;;7.79;82.84;100689.63;7392380;19;20543;-68
2021/12/23 02:33:23;;;;;;;29.92;11.60;;;;;;;7.79;83.24;100686.19;7390164;19;20050;-67
2021/12/23 02:35:52;;;;;;;31.30;12.50;;;;;;;7.82;83.45;100691.16;7391046;19;20022;-66
2021/12/23 02:38:19;;;;;;;30.95;11.73;;;;;;;7.85;83.23;100704.81;7387900;19;20014;-66
2021/12/23 02:40:46;;;;;;;32.42;11.98;;;;;;;7.87;83.47;100700.25;7363354;19;20321;-66
2021/12/23 02:43:39;;;;;;;35.10;14.32;;;;;;;7.90;83.88;100713.06;7391026;19;20006;-66
2021/12/23 02:46:08;;;;;;;30.45;12.02;;;;;;;7.97;84.08;100703.69;7390953;19;20021;-68
2021/12/23 02:48:41;;;;;;;30.33;12.00;;;;;;;7.99;83.45;100691.28;7390499;19;20015;-67
2021/12/23 02:51:11;;;;;;;31.70;11.90;;;;;;;8.01;83.61;100691.16;7393207;19;20026;-66
2021/12/23 02:53:43;;;;;;;35.75;17.35;;;;;;;8.00;83.00;100677.22;7392357;19;20015;-68
2021/12/23 02:56:15;;;;;;;31.85;13.30;;;;;;;8.03;83.33;100674.31;7390465;19;20042;-68
2021/12/23 02:58:44;;;;;;;29.65;12.00;;;;;;;8.05;83.47;100684.66;7392479;19;20201;-66
2021/12/23 03:01:13;;;;;;;30.25;12.27;;;;;;;8.08;83.62;100668.63;7391047;19;20027;-68
2021/12/23 03:03:42;;;;;;;29.52;11.80;;;;;;;8.11;83.56;100650.88;7391247;19;20017;-68
2021/12/23 03:06:11;;;;;;;36.10;13.38;;;;;;;8.09;82.96;100647.53;7389422;19;20098;-67
2021/12/23 03:08:41;;;;;;;30.20;11.45;;;;;;;8.11;83.57;100640.38;7389041;19;20504;-68
2021/12/23 03:11:12;;;;;;;30.27;12.00;;;;;;;8.08;82.85;100643.28;7390839;19;20010;-68
2021/12/23 03:13:40;;;;;;;25.77;10.73;;;;;;;8.08;82.74;100666.84;7389736;19;20017;-67
2021/12/23 03:16:08;;;;;;;28.40;11.35;;;;;;;8.08;82.65;100659.00;7386532;19;20325;-67
2021/12/23 03:18:36;;;;;;;30.88;11.90;;;;;;;8.10;83.00;100645.75;7391080;19;20508;-67
2021/12/23 03:21:04;;;;;;;27.35;12.23;;;;;;;8.10;82.82;100643.97;7386830;19;20006;-67
2021/12/23 03:23:32;;;;;;;30.08;11.77;;;;;;;8.11;82.80;100637.75;7386391;19;20045;-66
2021/12/23 03:26:00;;;;;;;27.30;10.95;;;;;;;8.16;83.09;100637.34;7387760;19;20400;-66
2021/12/23 03:28:27;;;;;;;27.88;11.73;;;;;;;8.15;82.54;100622.56;7389162;19;20014;-69
2021/12/23 03:30:55;;;;;;;27.15;11.20;;;;;;;8.13;82.47;100621.88;7370348;19;20031;-66
2021/12/23 03:33:22;;;;;;;25.92;11.10;;;;;;;8.16;83.10;100619.00;7386835;19;20049;-66
2021/12/23 03:35:49;;;;;;;29.90;11.48;;;;;;;8.16;82.78;100616.38;7391658;19;20006;-67
2021/12/23 03:38:17;;;;;;;31.13;11.75;;;;;;;8.16;82.73;100613.75;7387114;19;20361;-68
2021/12/23 03:40:45;;;;;;;32.45;11.43;;;;;;;8.18;82.84;100610.00;7391222;19;20025;-67
2021/12/23 03:43:14;;;;;;;31.38;11.88;;;;;;;8.24;83.17;100602.53;7387008;19;20353;-68
2021/12/23 03:45:43;;;;;;;31.05;12.02;;;;;;;8.24;82.95;100597.28;7389903;19;20447;-66
2021/12/23 03:48:12;;;;;;;27.65;11.40;;;;;;;8.24;83.09;100599.91;7390618;19;20078;-66
2021/12/23 03:50:40;;;;;;;30.70;11.88;;;;;;;8.27;83.12;100604.88;7387843;19;20019;-66
2021/12/23 03:53:08;;;;;;;31.27;12.63;;;;;;;8.27;83.14;100605.72;7388033;19;20007;-68
2021/12/23 03:55:35;;;;;;;30.20;12.07;;;;;;;8.28;83.50;100604.72;7388209;19;20014;-67
2021/12/23 03:58:02;;;;;;;28.17;10.38;;;;;;;8.28;83.71;100602.09;7389471;19;20018;-68
2021/12/23 04:00:30;;;;;;;28.08;11.65;;;;;;;8.31;83.46;100603.66;7386875;19;20056;-67
2021/12/23 04:02:57;;;;;;;34.30;11.75;;;;;;;8.33;83.36;100605.16;7379621;19;20014;-68
2021/12/23 04:05:25;;;;;;;27.05;11.15;;;;;;;8.36;83.92;100604.06;7389292;19;20010;-67
2021/12/23 04:07:52;;;;;;;31.38;12.15;;;;;;;8.36;83.77;100607.50;7390584;19;20462;-67
2021/12/23 04:10:21;;;;;;;31.25;12.10;;;;;;;8.38;83.66;100599.50;7388102;19;20014;-66
2021/12/23 04:12:49;;;;;;;36.35;13.82;;;;;;;8.41;84.37;100594.78;7386543;19;20094;-66
2021/12/23 04:15:16;;;;;;;31.88;12.07;;;;;;;8.44;84.58;100594.50;7389955;19;20042;-67
2021/12/23 04:17:44;;;;;;;37.75;13.65;;;;;;;8.45;85.20;100590.06;7386791;19;20015;-68
2021/12/23 04:22:43;;;;;;;36.85;13.38;;;;;;;8.45;84.66;100579.59;7387776;19;20017;-66
2021/12/23 04:25:11;;;;;;;30.98;12.82;;;;;;;8.44;84.76;100576.13;7390979;19;20034;-65
2021/12/23 04:27:38;;;;;;;33.33;12.55;;;;;;;8.42;84.88;100569.41;7392771;19;20090;-65
2021/12/23 04:30:07;;;;;;;39.65;13.95;;;;;;;8.43;84.96;100561.38;7395839;19;20017;-66
2021/12/23 04:32:34;;;;;;;36.55;13.50;;;;;;;8.40;85.29;100564.28;7394250;19;20022;-68
2021/12/23 04:35:02;;;;;;;34.47;12.85;;;;;;;8.40;85.39;100568.72;7397858;19;20015;-67
2021/12/23 04:37:29;;;;;;;38.58;14.38;;;;;;;8.39;85.42;100567.88;7391211;19;20090;-71
2021/12/23 04:39:56;;;;;;;29.83;11.30;;;;;;;8.41;85.41;100562.50;7395354;19;20090;-67
2021/12/23 04:42:23;;;;;;;46.67;16.92;;;;;;;8.45;86.21;100563.84;7395508;19;20010;-65
2021/12/23 04:44:52;;;;;;;32.97;11.80;;;;;;;8.48;86.00;100551.28;7396825;19;20018;-68
2021/12/23 04:47:19;;;;;;;32.60;13.45;;;;;;;8.51;85.94;100552.78;7391980;19;20011;-66
2021/12/23 04:49:46;;;;;;;37.25;13.57;;;;;;;8.53;86.52;100543.00;7394527;19;20011;-67
2021/12/23 04:52:13;;;;;;;33.72;12.07;;;;;;;8.53;86.38;100537.75;7394539;19;20647;-66
2021/12/23 04:54:40;;;;;;;40.13;13.32;;;;;;;8.55;86.64;100541.88;7394795;19;20366;-67
2021/12/23 04:57:07;;;;;;;36.80;13.27;;;;;;;8.58;86.59;100532.91;7395965;19;20003;-67
2021/12/23 04:59:35;;;;;;;35.72;13.38;;;;;;;8.60;86.71;100520.44;7394725;19;20010;-68
2021/12/23 05:02:02;;;;;;;35.72;13.63;;;;;;;8.58;86.62;100520.59;7392419;19;20119;-67
2021/12/23 05:04:30;;;;;;;36.35;12.68;;;;;;;8.58;86.67;100514.53;7393102;19;20026;-66
2021/12/23 05:06:57;;;;;;;39.10;17.08;;;;;;;8.55;86.78;100510.41;7394230;19;20046;-66
2021/12/23 05:09:24;;;;;;;35.40;12.57;;;;;;;8.55;87.28;100510.41;7395492;19;20515;-66
2021/12/23 05:11:51;;;;;;;31.45;12.98;;;;;;;8.55;87.00;100512.19;7391546;19;20102;-66
2021/12/23 05:14:18;;;;;;;41.80;14.07;;;;;;;8.54;87.05;100519.22;7392549;19;20082;-65
2021/12/23 05:16:45;;;;;;;36.80;12.52;;;;;;;8.54;86.92;100508.75;7395219;19;20082;-68
2021/12/23 05:19:12;;;;;;;39.80;13.50;;;;;;;8.57;87.16;100505.84;7395667;19;20013;-68
2021/12/23 05:21:39;;;;;;;35.03;13.30;;;;;;;8.58;87.54;100496.19;7392417;19;20102;-68
2021/12/23 05:24:06;;;;;;;38.17;13.13;;;;;;;8.58;87.61;100489.13;7392503;19;20015;-67
2021/12/23 05:26:34;;;;;;;41.97;14.40;;;;;;;8.59;87.80;100495.19;7392503;19;20026;-67
2021/12/23 05:29:01;;;;;;;37.55;13.77;;;;;;;8.60;87.86;100486.34;7394002;19;20377;-68
2021/12/23 05:31:28;;;;;;;41.42;14.23;;;;;;;8.63;88.13;100488.69;7393376;19;20035;-68
2021/12/23 05:33:55;;;;;;;35.40;12.27;;;;;;;8.65;88.39;100478.88;7393424;19;20507;-67
2021/12/23 05:36:22;;;;;;;44.08;14.85;;;;;;;8.66;88.22;100474.44;7391715;19;20010;-66
2021/12/23 05:38:49;;;;;;;57.05;16.85;;;;;;;8.68;88.23;100469.88;7392197;19;20391;-67
2021/12/23 05:41:16;;;;;;;41.25;15.55;;;;;;;8.69;88.41;100459.22;7392716;19;20594;-69
2021/12/23 05:43:43;;;;;;;40.67;15.82;;;;;;;8.70;88.71;100454.81;7391389;19;20082;-67
2021/12/23 05:46:10;;;;;;;44.20;14.82;;;;;;;8.72;89.17;100448.47;7390538;19;20014;-67
2021/12/23 05:48:37;;;;;;;41.00;13.55;;;;;;;8.76;89.45;100441.94;7391219;19;20010;-67
2021/12/23 05:51:04;;;;;;;48.95;18.58;;;;;;;8.74;89.30;100443.88;7392223;19;20044;-67
2021/12/23 05:53:32;;;;;;;44.08;15.13;;;;;;;8.76;89.50;100462.91;7393118;19;20609;-67
2021/12/23 05:55:59;;;;;;;44.00;14.32;;;;;;;8.81;89.57;100462.47;7391276;19;20401;-67
2021/12/23 05:58:26;;;;;;;46.13;14.27;;;;;;;8.80;89.46;100461.63;7391098;19;20014;-67
2021/12/23 06:00:53;;;;;;;38.20;14.32;;;;;;;8.82;89.52;100471.97;7393484;19;20590;-67
2021/12/23 06:03:20;;;;;;;39.85;14.80;;;;;;;8.86;89.32;100460.22;7390898;19;20015;-66
2021/12/23 06:05:47;;;;;;;45.25;15.40;;;;;;;8.87;89.14;100452.19;7390668;19;20006;-67
2021/12/23 06:08:14;;;;;;;40.90;14.63;;;;;;;8.88;89.38;100434.66;7390534;19;20459;-66
2021/12/23 06:10:41;;;;;;;44.45;14.60;;;;;;;8.88;89.14;100447.78;7392478;19;20014;-67
2021/12/23 06:13:08;;;;;;;39.00;14.00;;;;;;;8.87;89.25;100457.44;7389471;19;20027;-67
2021/12/23 06:15:35;;;;;;;35.72;14.13;;;;;;;8.86;89.16;100461.03;7388618;19;20021;-68
2021/12/23 06:18:03;;;;;;;43.13;13.45;;;;;;;8.85;89.28;100448.06;7390684;19;20074;-68
2021/12/23 06:20:30;;;;;;;45.25;14.10;;;;;;;8.90;89.90;100440.56;7391326;19;20109;-68
2021/12/23 06:22:58;;;;;;;44.22;14.73;;;;;;;8.94;89.95;100434.84;7390389;19;20372;-68
2021/12/23 06:25:25;;;;;;;40.50;14.18;;;;;;;8.93;90.17;100438.47;7391473;19;20033;-65
2021/12/23 06:27:52;;;;;;;48.20;14.60;;;;;;;8.97;90.23;100433.75;7393665;19;20014;-67
2021/12/23 06:30:19;;;;;;;40.63;13.77;;;;;;;8.98;90.12;100441.47;7389123;19;20058;-66
2021/12/23 06:32:49;;;;;;;39.17;14.80;;;;;;;8.99;90.40;100444.91;7393559;19;20123;-68
2021/12/23 06:35:18;;;;;;;43.60;15.48;;;;;;;9.04;90.26;100447.09;7390583;19;20036;-66
2021/12/23 06:37:46;;;;;;;40.63;15.05;;;;;;;9.08;90.64;100451.03;7390662;19;20026;-66
2021/12/23 06:40:14;;;;;;;40.10;14.23;;;;;;;9.10;90.71;100455.16;7390763;19;20042;-67
2021/12/23 06:42:42;;;;;;;47.13;18.88;;;;;;;9.17;91.61;100450.13;7390393;19;20440;-68
2021/12/23 06:45:09;;;;;;;44.70;14.93;;;;;;;9.20;91.69;100444.56;7387127;19;20183;-68
2021/12/23 06:47:36;;;;;;;46.47;15.68;;;;;;;9.21;91.62;100447.03;7391462;19;20018;-67
2021/12/23 06:50:06;;;;;;;38.17;14.68;;;;;;;9.22;91.85;100437.38;7390448;19;20043;-67
2021/12/23 06:52:37;;;;;;;37.13;13.93;;;;;;;9.27;91.30;100437.72;7387494;19;20010;-68
2021/12/23 06:55:11;;;;;;;39.50;15.25;;;;;;;9.31;91.62;100428.56;7390367;19;20003;-68
2021/12/23 06:57:40;;;;;;;40.33;13.60;;;;;;;9.35;91.55;100429.88;7392237;19;20002;-67
2021/12/23 07:00:14;;;;;;;44.40;18.48;;;;;;;9.38;91.27;100427.81;7390758;19;20010;-67
2021/12/23 07:02:42;;;;;;;41.03;15.40;;;;;;;9.40;91.20;100419.75;7389993;19;20054;-66
2021/12/23 07:05:10;;;;;;;36.42;12.98;;;;;;;9.41;91.02;100410.91;7388019;19;20011;-66
2021/12/23 07:07:52;;;;;;;38.20;15.18;;;;;;;9.41;91.17;100403.03;7391568;19;20027;-68
2021/12/23 07:10:21;;;;;;;32.83;13.20;;;;;;;9.38;91.14;100409.41;7386753;19;20134;-69
2021/12/23 07:12:49;;;;;;;46.30;16.60;;;;;;;9.39;91.16;100407.63;7387619;19;20548;-65
2021/12/23 07:15:16;;;;;;;35.42;14.48;;;;;;;9.40;91.31;100411.88;7388393;19;20066;-67
2021/12/23 07:17:43;;;;;;;38.83;13.20;;;;;;;9.44;91.63;100421.94;7388642;19;20467;-67
2021/12/23 07:20:11;;;;;;;30.48;13.43;;;;;;;9.46;91.24;100429.63;7388686;19;20044;-67
2021/12/23 07:22:38;;;;;;;38.40;13.57;;;;;;;9.48;90.87;100440.00;7389786;19;20020;-66
2021/12/23 07:25:07;;;;;;;33.78;13.05;;;;;;;9.45;90.86;100441.09;7386655;19;20015;-67
2021/12/23 07:27:35;;;;;;;34.58;13.40;;;;;;;9.43;90.73;100436.03;7390827;19;20015;-68
2021/12/23 07:30:03;;;;;;;29.25;11.68;;;;;;;9.41;90.55;100435.34;7389400;19;20006;-67
2021/12/23 07:32:31;;;;;;;37.33;12.80;;;;;;;9.43;91.01;100427.34;7390569;19;20436;-68
2021/12/23 07:34:58;;;;;;;35.83;13.23;;;;;;;9.43;90.90;100420.28;7388851;19;20158;-67
2021/12/23 07:37:25;;;;;;;33.85;13.68;;;;;;;9.46;90.94;100424.38;7386936;19;20018;-68
2021/12/23 07:39:54;;;;;;;31.27;13.77;;;;;;;9.47;90.93;100410.28;7388956;19;20011;-67
2021/12/23 07:42:31;;;;;;;35.92;14.25;;;;;;;9.46;90.77;100421.75;7387524;19;20078;-66
2021/12/23 07:45:01;;;;;;;33.92;13.30;;;;;;;9.45;90.68;100423.56;7388615;19;20006;-67
2021/12/23 07:47:30;;;;;;;38.13;13.90;;;;;;;9.45;90.80;100434.06;7389329;19;20369;-66
2021/12/23 07:49:57;;;;;;;34.38;13.00;;;;;;;9.44;90.83;100421.09;7390746;19;20469;-68
2021/12/23 07:52:24;;;;;;;38.13;13.93;;;;;;;9.48;91.36;100421.63;7391026;19;20022;-68
2021/12/23 07:54:52;;;;;;;34.03;13.88;;;;;;;9.50;91.15;100404.72;7384817;19;20011;-67
2021/12/23 07:57:19;;;;;;;38.67;14.98;;;;;;;9.51;90.96;100410.78;7388339;19;20886;-66
2021/12/23 07:59:46;;;;;;;31.63;12.80;;;;;;;9.50;90.78;100409.97;7390764;19;20468;-66
2021/12/23 08:02:13;;;;;;;32.30;12.75;;;;;;;9.49;90.74;100405.72;7389387;19;20025;-66
2021/12/23 08:04:45;;;;;;;42.03;15.15;;;;;;;9.49;90.83;100399.63;7386149;19;20025;-67
2021/12/23 08:07:12;;;;;;;37.88;14.60;;;;;;;9.51;91.13;100402.91;7389206;19;20441;-67
2021/12/23 08:09:39;;;;;;;35.15;13.95;;;;;;;9.54;90.80;100394.72;7388840;19;20030;-67
2021/12/23 08:12:08;;;;;;;30.50;13.18;;;;;;;9.53;91.05;100385.19;7388552;19;20046;-66
2021/12/23 08:14:35;;;;;;;34.22;13.02;;;;;;;9.52;90.83;100396.69;7386941;19;20078;-66
2021/12/23 08:17:22;;;;;;;36.28;12.57;;;;;;;9.53;90.76;100414.91;7384781;19;20015;-66
2021/12/23 08:19:49;;;;;;;36.30;13.82;;;;;;;9.58;91.70;100415.28;7387042;19;20025;-67
2021/12/23 08:22:17;;;;;;;37.88;14.20;;;;;;;9.62;91.78;100411.34;7389082;19;20054;-66
2021/12/23 08:24:44;;;;;;;34.65;12.88;;;;;;;9.62;91.18;100406.09;7385467;19;20085;-67
2021/12/23 08:27:11;;;;;;;29.40;12.50;;;;;;;9.61;91.17;100417.56;7388163;19;20066;-66
2021/12/23 08:29:38;;;;;;;40.00;13.40;;;;;;;9.61;91.15;100417.56;7387857;19;20014;-67
2021/12/23 08:32:06;;;;;;;213.70;22.73;;;;;;;9.71;92.77;100420.91;7389186;19;20043;-67
2021/12/23 08:34:35;;;;;;;37.58;14.20;;;;;;;9.80;93.76;100424.41;7385304;19;20087;-66
2021/12/23 08:37:05;;;;;;;52.30;18.77;;;;;;;9.75;92.79;100439.81;7387941;19;20484;-66
2021/12/23 08:39:32;;;;;;;40.17;16.13;;;;;;;9.76;92.96;100444.06;7387504;19;20015;-67
2021/12/23 08:41:59;;;;;;;39.22;15.65;;;;;;;9.74;92.74;100440.78;7388697;19;20011;-67
2021/12/23 08:44:26;;;;;;;38.88;14.45;;;;;;;9.72;92.79;100437.50;7390572;19;20017;-69
2021/12/23 08:46:53;;;;;;;32.35;13.68;;;;;;;9.74;92.69;100432.91;7388106;19;20010;-67
2021/12/23 08:49:19;;;;;;;32.95;14.13;;;;;;;9.75;92.44;100431.94;7389738;19;20007;-66
2021/12/23 08:51:46;;;;;;;35.80;15.73;;;;;;;9.73;91.90;100434.72;7388574;19;20007;-67
2021/12/23 08:54:13;;;;;;;49.13;17.50;;;;;;;9.74;92.41;100425.84;7387307;19;20474;-67
2021/12/23 08:56:40;;;;;;;55.53;19.25;;;;;;;9.76;92.43;100429.13;7387957;19;20011;-66
2021/12/23 08:59:07;;;;;;;41.60;16.02;;;;;;;9.80;92.21;100435.72;7391669;19;20010;-67
2021/12/23 09:01:35;;;;;;;42.05;16.27;;;;;;;9.80;92.40;100416.53;7388059;19;20015;-66
2021/12/23 09:04:02;;;;;;;42.97;15.68;;;;;;;9.82;92.11;100420.63;7390762;19;20014;-68
2021/12/23 09:06:29;;;;;;;35.50;13.90;;;;;;;9.81;91.91;100421.59;7391372;19;20030;-67
2021/12/23 09:08:57;;;;;;;33.80;12.43;;;;;;;9.81;91.55;100428.66;7388697;19;20406;-67
2021/12/23 09:11:25;;;;;;;43.08;14.23;;;;;;;9.82;91.19;100423.25;7387759;19;20093;-67
2021/12/23 09:13:52;;;;;;;39.75;14.32;;;;;;;9.82;91.04;100423.25;7394852;19;20294;-68
2021/12/23 09:16:19;;;;;;;33.47;13.98;;;;;;;9.79;91.02;100423.59;7395527;19;20062;-67
2021/12/23 09:18:46;;;;;;;39.53;16.20;;;;;;;9.83;91.36;100416.19;7395539;19;20074;-67
2021/12/23 09:21:13;;;;;;;38.88;14.88;;;;;;;9.90;91.89;100414.59;7394837;19;20013;-67
2021/12/23 09:23:59;;;;;;;48.53;18.48;;;;;;;9.94;91.69;100415.09;7394964;19;20086;-67
2021/12/23 09:26:26;;;;;;;36.03;14.30;;;;;;;9.98;91.63;100414.63;7395121;19;20328;-68
2021/12/23 09:29:10;;;;;;;34.03;13.35;;;;;;;10.01;91.12;100410.81;7394959;19;20010;-67
2021/12/23 09:34:23;;;;;;;33.30;13.48;;;;;;;9.97;90.82;100397.19;7395431;19;20011;-67
2021/12/23 09:36:50;;;;;;;44.58;17.50;;;;;;;10.02;90.87;100409.84;7397832;19;20022;-67
2021/12/23 09:39:16;;;;;;;37.70;14.23;;;;;;;10.03;91.23;100403.63;7390525;19;20022;-69
2021/12/23 09:41:46;;;;;;;35.60;14.25;;;;;;;10.00;90.84;100410.03;7394451;19;20014;-67
2021/12/23 09:44:14;;;;;;;39.45;15.07;;;;;;;10.00;91.07;100398.69;7395074;19;20007;-67
2021/12/23 09:46:42;;;;;;;38.20;13.85;;;;;;;10.04;91.45;100400.00;7397442;19;20499;-67
2021/12/23 09:49:09;;;;;;;32.97;13.18;;;;;;;10.08;91.44;100401.34;7392464;19;20018;-66
2021/12/23 09:51:38;;;;;;;44.92;16.60;;;;;;;10.12;91.29;100410.53;7398986;19;20019;-66
2021/12/23 09:54:08;;;;;;;39.22;14.68;;;;;;;10.16;91.37;100415.34;7394135;19;20017;-67
2021/12/23 09:56:36;;;;;;;32.80;14.23;;;;;;;10.19;91.12;100417.66;7394218;19;20007;-67
2021/12/23 09:59:06;;;;;;;32.08;13.88;;;;;;;10.18;91.16;100421.28;7395550;19;20021;-67
2021/12/23 10:01:35;;;;;;;38.42;15.75;;;;;;;10.19;90.68;100411.59;7393996;19;20018;-66
2021/12/23 10:04:03;;;;;;;31.52;12.52;;;;;;;10.21;90.76;100391.19;7394851;19;20011;-67
2021/12/23 10:06:30;;;;;;;35.80;14.75;;;;;;;10.22;90.62;100385.78;7393272;19;20046;-66
2021/12/23 10:08:58;;;;;;;35.95;14.45;;;;;;;10.26;91.10;100379.22;7395399;19;20022;-67
2021/12/23 10:31:59;;;;;;;30.15;12.10;;;;;;;10.28;90.40;100395.66;7395113;19;20760;-68
2021/12/23 10:39:45;;;;;;;32.25;12.10;;;;;;;10.33;90.81;100389.91;7395406;19;20011;-66
2021/12/23 10:42:18;;;;;;;28.70;11.82;;;;;;;10.29;90.42;100388.59;7392349;19;20016;-66
2021/12/23 10:44:58;;;;;;;34.75;13.70;;;;;;;10.31;90.93;100396.34;7395541;19;20017;-68
2021/12/23 10:48:03;;;;;;;31.20;12.00;;;;;;;10.28;90.99;100398.28;7390095;19;20492;-66
2021/12/23 10:50:42;;;;;;;29.67;11.73;;;;;;;10.27;90.77;100393.19;7391698;19;20014;-67
2021/12/23 10:53:28;;;;;;;27.65;11.82;;;;;;;10.24;91.05;100394.34;7395547;19;20321;-67
2021/12/23 10:59:29;;;;;;;30.63;12.48;;;;;;;10.26;91.04;100389.72;7391688;19;20014;-67
2021/12/23 11:02:08;;;;;;;35.40;13.35;;;;;;;10.28;90.99;100384.31;7392235;19;20082;-66
2021/12/23 11:05:23;;;;;;;33.72;13.35;;;;;;;10.32;91.39;100377.75;7391421;19;20087;-68
2021/12/23 11:37:35;;;;;;;33.78;12.45;;;;;;;10.43;91.00;100338.00;7384636;19;20040;-67
2021/12/23 11:40:25;;;;;;;33.03;13.48;;;;;;;10.48;90.97;100330.44;7390347;19;20598;-67
2021/12/23 11:45:38;;;;;;;24.75;12.15;;;;;;;10.55;91.10;100322.72;7389540;19;20035;-67
2021/12/23 11:48:07;;;;;;;24.27;11.82;;;;;;;10.55;91.02;100323.53;7390821;19;20074;-67
2021/12/23 11:50:42;;;;;;;27.48;12.15;;;;;;;10.57;91.24;100313.66;7389933;19;20029;-67
2021/12/23 11:53:09;;;;;;;28.75;11.95;;;;;;;10.65;91.21;100313.66;7388611;19;20011;-67
2021/12/23 11:55:38;;;;;;;30.98;12.43;;;;;;;10.69;91.29;100311.50;7393134;19;20023;-67
2021/12/23 11:58:05;;;;;;;28.42;11.85;;;;;;;10.69;90.88;100298.34;7391559;19;20033;-66
2021/12/23 12:00:41;;;;;;;30.08;12.20;;;;;;;10.70;91.31;100289.47;7389135;19;20349;-65
2021/12/23 12:03:11;;;;;;;30.23;14.13;;;;;;;10.72;91.51;100280.41;7389991;19;20014;-67
2021/12/23 12:05:39;;;;;;;33.83;14.45;;;;;;;10.74;91.49;100269.72;7389418;19;20458;-66
2021/12/23 12:08:10;;;;;;;34.78;13.02;;;;;;;10.72;91.29;100269.06;7389477;19;20018;-68
2021/12/23 12:10:40;;;;;;;27.63;10.80;;;;;;;10.73;91.23;100262.81;7393648;19;20271;-68
2021/12/23 12:13:11;;;;;;;28.67;11.82;;;;;;;10.72;91.09;100258.53;7388561;19;20015;-67
2021/12/23 12:15:38;;;;;;;32.20;12.02;;;;;;;10.74;91.54;100253.94;7389400;19;20018;-68
2021/12/23 12:18:11;;;;;;;30.33;12.38;;;;;;;10.81;91.84;100257.56;7388726;19;20002;-65
2021/12/23 12:20:46;;;;;;;31.77;10.63;;;;;;;10.83;91.71;100254.75;7390789;19;20019;-67
2021/12/23 12:23:39;;;;;;;26.73;10.18;;;;;;;10.86;91.90;100247.34;7389155;19;20011;-67
2021/12/23 12:26:09;;;;;;;28.05;12.77;;;;;;;10.89;91.48;100244.38;7386083;19;20088;-65
2021/12/23 12:28:42;;;;;;;28.75;11.93;;;;;;;10.95;91.72;100240.25;7389669;19;20013;-67
2021/12/23 12:31:20;;;;;;;26.90;10.80;;;;;;;11.02;91.98;100238.59;7389291;19;20074;-66
2021/12/23 12:34:00;;;;;;;28.02;9.85;;;;;;;11.05;92.11;100233.78;7386560;19;20014;-67
2021/12/23 12:36:28;;;;;;;28.98;10.40;;;;;;;11.08;91.69;100230.81;7392033;19;20100;-67
2021/12/23 12:39:09;;;;;;;21.48;9.10;;;;;;;11.10;91.64;100230.63;7389224;19;20523;-67
2021/12/23 12:41:38;;;;;;;30.65;10.73;;;;;;;11.13;91.88;100235.56;7362323;19;20023;-68
2021/12/23 12:44:25;;;;;;;26.38;10.60;;;;;;;11.18;91.88;100229.78;7386891;19;20050;-67